sensor_id;sensor_type;location;lat;lon;timestamp;temperature;humidity
55219;DHT22;41088;44.012;20.902;2022-07-21T01:12:55;538.10;1945.60
55219;DHT22;41088;44.012;20.902;2022-07-21T01:15:23;537.90;1945.60
55219;DHT22;41088;44.012;20.902;2022-07-21T01:17:50;538.00;1971.20
55219;DHT22;41088;44.012;20.902;2022-07-21T01:20:20;538.00;1971.20
55219;DHT22;41088;44.012;20.902;2022-07-21T01:22:49;537.90;1996.80
55219;DHT22;41088;44.012;20.902;2022-07-21T01:25:16;537.90;1996.80
55219;DHT22;41088;44.012;20.902;2022-07-21T01:27:45;537.90;2022.40
55219;DHT22;41088;44.012;20.902;2022-07-21T01:30:12;537.90;2022.40
55219;DHT22;41088;44.012;20.902;2022-07-21T01:32:39;537.80;2022.40
55219;DHT22;41088;44.012;20.902;2022-07-21T01:35:07;537.90;2022.40
55219;DHT22;41088;44.012;20.902;2022-07-21T01:37:38;537.80;2022.40
55219;DHT22;41088;44.012;20.902;2022-07-21T01:40:07;537.90;2048.00
55219;DHT22;41088;44.012;20.902;2022-07-21T01:42:51;537.80;2048.00
55219;DHT22;41088;44.012;20.902;2022-07-21T01:45:18;537.80;2176.00
55219;DHT22;41088;44.012;20.902;2022-07-21T04:05:15;589.50;2022.40
55219;DHT22;41088;44.012;20.902;2022-07-21T04:07:47;640.70;1843.20
55219;DHT22;41088;44.012;20.902;2022-07-21T04:12:41;743.10;1484.80
55219;DHT22;41088;44.012;20.902;2022-07-21T04:15:08;768.30;1459.20
55219;DHT22;41088;44.012;20.902;2022-07-21T04:17:35;794.10;1408.00
55219;DHT22;41088;44.012;20.902;2022-07-21T04:22:30;845.10;1254.40
55219;DHT22;41088;44.012;20.902;2022-07-21T04:24:56;845.60;1254.40
55219;DHT22;41088;44.012;20.902;2022-07-21T04:27:22;870.80;1203.20
55219;DHT22;41088;44.012;20.902;2022-07-21T04:29:48;896.50;1126.40
55219;DHT22;41088;44.012;20.902;2022-07-21T04:32:15;922.00;1126.40
55219;DHT22;41088;44.012;20.902;2022-07-21T04:34:41;922.40;1075.20
55219;DHT22;41088;44.012;20.902;2022-07-21T04:37:07;948.00;1075.20
55219;DHT22;41088;44.012;20.902;2022-07-21T04:49:18;1050.00;972.80
55219;DHT22;41088;44.012;20.902;2022-07-21T04:51:44;1050.40;947.20
55219;DHT22;41088;44.012;20.902;2022-07-21T04:54:10;1075.20;972.80
55219;DHT22;41088;44.012;20.902;2022-07-21T05:01:31;1101.50;921.60
55219;DHT22;41088;44.012;20.902;2022-07-21T05:03:57;1101.20;896.00
55219;DHT22;41088;44.012;20.902;2022-07-21T05:06:24;1126.60;896.00
55219;DHT22;41088;44.012;20.902;2022-07-21T05:08:51;1126.40;870.40
55219;DHT22;41088;44.012;20.902;2022-07-21T05:18:37;1152.60;844.80
55219;DHT22;41088;44.012;20.902;2022-07-21T05:21:03;1152.50;819.20
55219;DHT22;41088;44.012;20.902;2022-07-21T05:23:29;1152.80;819.20
55219;DHT22;41088;44.012;20.902;2022-07-21T05:25:55;1152.50;819.20
55219;DHT22;41088;44.012;20.902;2022-07-21T05:28:21;1177.60;793.60
55219;DHT22;41088;44.012;20.902;2022-07-21T05:38:06;1204.00;768.00
55219;DHT22;41088;44.012;20.902;2022-07-21T05:40:32;1203.70;768.00
55219;DHT22;41088;44.012;20.902;2022-07-21T05:50:18;1178.20;768.00
55219;DHT22;41088;44.012;20.902;2022-07-21T05:52:44;1178.20;768.00
55219;DHT22;41088;44.012;20.902;2022-07-21T05:55:10;1178.40;768.00
55219;DHT22;41088;44.012;20.902;2022-07-21T05:57:38;1203.50;768.00
55219;DHT22;41088;44.012;20.902;2022-07-21T06:00:05;1178.10;768.00
55219;DHT22;41088;44.012;20.902;2022-07-21T06:02:31;1178.40;742.40
55219;DHT22;41088;44.012;20.902;2022-07-21T06:04:58;1177.90;768.00
55219;DHT22;41088;44.012;20.902;2022-07-21T06:07:25;1177.90;768.00
55219;DHT22;41088;44.012;20.902;2022-07-21T06:09:51;1152.90;768.00
55219;DHT22;41088;44.012;20.902;2022-07-21T06:12:17;1177.60;768.00
55219;DHT22;41088;44.012;20.902;2022-07-21T06:14:43;1101.10;819.20
55219;DHT22;41088;44.012;20.902;2022-07-21T06:17:10;1049.70;870.40
55219;DHT22;41088;44.012;20.902;2022-07-21T06:34:14;845.50;1049.60
55219;DHT22;41088;44.012;20.902;2022-07-21T06:36:41;844.80;1049.60
55219;DHT22;41088;44.012;20.902;2022-07-21T06:39:07;820.00;1049.60
55219;DHT22;41088;44.012;20.902;2022-07-21T06:41:33;819.50;1075.20
55219;DHT22;41088;44.012;20.902;2022-07-21T06:43:59;819.40;1100.80
55219;DHT22;41088;44.012;20.902;2022-07-21T06:46:34;819.30;1126.40
55219;DHT22;41088;44.012;20.902;2022-07-21T06:51:27;794.40;1100.80
55219;DHT22;41088;44.012;20.902;2022-07-21T06:53:53;794.30;1100.80
55219;DHT22;41088;44.012;20.902;2022-07-21T06:58:47;794.20;1126.40
55219;DHT22;41088;44.012;20.902;2022-07-21T07:03:43;794.00;1126.40
55219;DHT22;41088;44.012;20.902;2022-07-21T07:06:09;794.10;1126.40
55219;DHT22;41088;44.012;20.902;2022-07-21T07:08:35;794.10;1126.40
55219;DHT22;41088;44.012;20.902;2022-07-21T07:11:02;794.10;1152.00
55219;DHT22;41088;44.012;20.902;2022-07-21T07:13:29;794.00;1152.00
55219;DHT22;41088;44.012;20.902;2022-07-21T07:15:55;794.00;1152.00
55219;DHT22;41088;44.012;20.902;2022-07-21T07:18:21;794.00;1152.00
55219;DHT22;41088;44.012;20.902;2022-07-21T07:20:49;794.00;1152.00
55219;DHT22;41088;44.012;20.902;2022-07-21T07:23:16;794.10;1152.00
55219;DHT22;41088;44.012;20.902;2022-07-21T07:25:43;794.10;1152.00
55219;DHT22;41088;44.012;20.902;2022-07-21T07:28:11;794.10;1152.00
55219;DHT22;41088;44.012;20.902;2022-07-21T07:30:37;794.10;1152.00
55219;DHT22;41088;44.012;20.902;2022-07-21T07:33:03;794.20;1152.00
55219;DHT22;41088;44.012;20.902;2022-07-21T07:35:29;794.40;1152.00
55219;DHT22;41088;44.012;20.902;2022-07-21T07:37:55;794.40;1152.00
55219;DHT22;41088;44.012;20.902;2022-07-21T07:40:23;794.40;1152.00
55219;DHT22;41088;44.012;20.902;2022-07-21T07:42:50;794.50;1152.00
55219;DHT22;41088;44.012;20.902;2022-07-21T07:45:16;794.50;1152.00
55219;DHT22;41088;44.012;20.902;2022-07-21T07:47:43;819.20;1152.00
55219;DHT22;41088;44.012;20.902;2022-07-21T07:50:11;819.20;1152.00
55219;DHT22;41088;44.012;20.902;2022-07-21T07:52:38;819.20;1152.00
55219;DHT22;41088;44.012;20.902;2022-07-21T07:55:05;819.40;1152.00
55219;DHT22;41088;44.012;20.902;2022-07-21T07:57:37;819.50;1152.00
55219;DHT22;41088;44.012;20.902;2022-07-21T08:02:35;819.70;1152.00
55219;DHT22;41088;44.012;20.902;2022-07-21T08:05:02;819.70;1177.60
55219;DHT22;41088;44.012;20.902;2022-07-21T08:07:28;819.70;1152.00
55219;DHT22;41088;44.012;20.902;2022-07-21T08:09:54;819.60;1152.00
55219;DHT22;41088;44.012;20.902;2022-07-21T08:12:22;819.50;1126.40
55219;DHT22;41088;44.012;20.902;2022-07-21T08:14:52;819.50;1126.40
55219;DHT22;41088;44.012;20.902;2022-07-21T08:17:18;819.60;1126.40
55219;DHT22;41088;44.012;20.902;2022-07-21T08:19:44;819.70;1100.80
55219;DHT22;41088;44.012;20.902;2022-07-21T08:22:10;819.70;1100.80
55219;DHT22;41088;44.012;20.902;2022-07-21T08:24:37;819.60;1100.80
55219;DHT22;41088;44.012;20.902;2022-07-21T08:27:04;819.70;1100.80
55219;DHT22;41088;44.012;20.902;2022-07-21T08:29:30;819.70;1100.80
55219;DHT22;41088;44.012;20.902;2022-07-21T08:31:56;819.70;1100.80
55219;DHT22;41088;44.012;20.902;2022-07-21T08:34:22;819.70;1126.40
55219;DHT22;41088;44.012;20.902;2022-07-21T08:36:48;819.70;1100.80
55219;DHT22;41088;44.012;20.902;2022-07-21T08:39:17;819.90;1100.80
55219;DHT22;41088;44.012;20.902;2022-07-21T08:41:43;820.00;1100.80
55219;DHT22;41088;44.012;20.902;2022-07-21T08:44:09;819.80;1100.80
55219;DHT22;41088;44.012;20.902;2022-07-21T08:46:38;820.00;1100.80
55219;DHT22;41088;44.012;20.902;2022-07-21T08:49:06;820.00;1075.20
55219;DHT22;41088;44.012;20.902;2022-07-21T08:51:36;819.90;1075.20
55219;DHT22;41088;44.012;20.902;2022-07-21T08:54:03;819.70;1075.20
55219;DHT22;41088;44.012;20.902;2022-07-21T08:56:30;819.90;1075.20
55219;DHT22;41088;44.012;20.902;2022-07-21T08:58:56;819.80;1075.20
55219;DHT22;41088;44.012;20.902;2022-07-21T09:01:24;819.80;1075.20
55219;DHT22;41088;44.012;20.902;2022-07-21T09:03:53;819.70;1100.80
55219;DHT22;41088;44.012;20.902;2022-07-21T09:06:20;819.90;1075.20
55219;DHT22;41088;44.012;20.902;2022-07-21T09:08:50;819.90;1075.20
55219;DHT22;41088;44.012;20.902;2022-07-21T09:11:18;820.00;1075.20
55219;DHT22;41088;44.012;20.902;2022-07-21T09:14:05;820.00;1075.20
55219;DHT22;41088;44.012;20.902;2022-07-21T09:16:42;819.90;1075.20
55219;DHT22;41088;44.012;20.902;2022-07-21T09:19:23;819.90;1100.80
55219;DHT22;41088;44.012;20.902;2022-07-21T09:21:51;819.90;1075.20
55219;DHT22;41088;44.012;20.902;2022-07-21T09:24:25;820.00;1075.20
55219;DHT22;41088;44.012;20.902;2022-07-21T09:27:22;820.00;1049.60
55219;DHT22;41088;44.012;20.902;2022-07-21T09:35:09;820.00;1075.20
55219;DHT22;41088;44.012;20.902;2022-07-21T09:37:38;844.80;1100.80
55219;DHT22;41088;44.012;20.902;2022-07-21T09:40:10;844.80;1100.80
55219;DHT22;41088;44.012;20.902;2022-07-21T09:42:49;820.00;1075.20
55219;DHT22;41088;44.012;20.902;2022-07-21T09:45:16;820.00;1075.20
55219;DHT22;41088;44.012;20.902;2022-07-21T09:47:45;820.00;1075.20
55219;DHT22;41088;44.012;20.902;2022-07-21T09:50:13;820.10;1075.20
55219;DHT22;41088;44.012;20.902;2022-07-21T09:52:45;844.90;1075.20
55219;DHT22;41088;44.012;20.902;2022-07-21T09:55:16;845.10;1075.20
55219;DHT22;41088;44.012;20.902;2022-07-21T10:42:25;845.40;1049.60
55219;DHT22;41088;44.012;20.902;2022-07-21T10:44:51;845.30;1049.60
55219;DHT22;41088;44.012;20.902;2022-07-21T10:47:19;845.30;1049.60
55219;DHT22;41088;44.012;20.902;2022-07-21T10:49:57;845.40;1049.60
55219;DHT22;41088;44.012;20.902;2022-07-21T10:57:37;845.40;1024.00
55219;DHT22;41088;44.012;20.902;2022-07-21T11:00:27;845.30;1049.60
55219;DHT22;41088;44.012;20.902;2022-07-21T11:03:00;845.30;1049.60
55219;DHT22;41088;44.012;20.902;2022-07-21T11:05:29;845.40;1075.20
55219;DHT22;41088;44.012;20.902;2022-07-21T11:08:18;845.50;1049.60
55219;DHT22;41088;44.012;20.902;2022-07-21T11:10:52;845.60;1075.20
55219;DHT22;41088;44.012;20.902;2022-07-21T11:13:21;845.60;1049.60
55219;DHT22;41088;44.012;20.902;2022-07-21T11:15:58;845.60;1049.60
55219;DHT22;41088;44.012;20.902;2022-07-21T11:18:27;845.60;1049.60
55219;DHT22;41088;44.012;20.902;2022-07-21T11:21:10;845.70;1049.60
55219;DHT22;41088;44.012;20.902;2022-07-21T11:24:00;845.70;1049.60
55219;DHT22;41088;44.012;20.902;2022-07-21T11:26:26;845.60;1049.60
55219;DHT22;41088;44.012;20.902;2022-07-21T11:29:06;845.60;1049.60
55219;DHT22;41088;44.012;20.902;2022-07-21T11:31:32;845.60;1049.60
55219;DHT22;41088;44.012;20.902;2022-07-21T11:34:10;845.70;1049.60
55219;DHT22;41088;44.012;20.902;2022-07-21T11:36:36;845.70;1049.60
55219;DHT22;41088;44.012;20.902;2022-07-21T11:39:13;845.70;1075.20
55219;DHT22;41088;44.012;20.902;2022-07-21T11:41:41;870.40;1049.60
55219;DHT22;41088;44.012;20.902;2022-07-21T11:44:09;870.40;1075.20
55219;DHT22;41088;44.012;20.902;2022-07-21T11:47:05;870.40;1075.20
55219;DHT22;41088;44.012;20.902;2022-07-21T11:49:33;870.40;1075.20
55219;DHT22;41088;44.012;20.902;2022-07-21T11:52:11;870.40;1049.60
55219;DHT22;41088;44.012;20.902;2022-07-21T11:54:50;870.40;1049.60
55219;DHT22;41088;44.012;20.902;2022-07-21T11:57:18;870.50;1049.60
55219;DHT22;41088;44.012;20.902;2022-07-21T11:59:45;870.50;1049.60
55219;DHT22;41088;44.012;20.902;2022-07-21T12:02:14;870.50;1049.60
55219;DHT22;41088;44.012;20.902;2022-07-21T12:04:56;870.50;1049.60
55219;DHT22;41088;44.012;20.902;2022-07-21T12:07:30;870.40;1075.20
55219;DHT22;41088;44.012;20.902;2022-07-21T12:10:02;870.40;1075.20
55219;DHT22;41088;44.012;20.902;2022-07-21T12:14:58;870.50;1075.20
55219;DHT22;41088;44.012;20.902;2022-07-21T12:17:40;870.50;1075.20
55219;DHT22;41088;44.012;20.902;2022-07-21T12:20:09;870.60;1075.20
55219;DHT22;41088;44.012;20.902;2022-07-21T12:22:37;870.70;1075.20
55219;DHT22;41088;44.012;20.902;2022-07-21T12:25:05;870.70;1075.20
55219;DHT22;41088;44.012;20.902;2022-07-21T12:27:37;870.70;1075.20
55219;DHT22;41088;44.012;20.902;2022-07-21T12:30:08;870.70;1075.20
55219;DHT22;41088;44.012;20.902;2022-07-21T12:32:40;870.70;1075.20
55219;DHT22;41088;44.012;20.902;2022-07-21T12:35:23;870.80;1075.20
55219;DHT22;41088;44.012;20.902;2022-07-21T12:38:13;870.80;1075.20
55219;DHT22;41088;44.012;20.902;2022-07-21T12:40:46;870.80;1075.20
55219;DHT22;41088;44.012;20.902;2022-07-21T12:43:19;870.80;1024.00
55219;DHT22;41088;44.012;20.902;2022-07-21T12:51:02;870.80;1049.60
55219;DHT22;41088;44.012;20.902;2022-07-21T12:53:29;870.70;1049.60
55219;DHT22;41088;44.012;20.902;2022-07-21T12:55:55;870.70;1049.60
55219;DHT22;41088;44.012;20.902;2022-07-21T12:58:22;870.80;1049.60
55219;DHT22;41088;44.012;20.902;2022-07-21T13:00:49;870.80;1049.60
55219;DHT22;41088;44.012;20.902;2022-07-21T13:03:15;870.90;1049.60
55219;DHT22;41088;44.012;20.902;2022-07-21T13:05:41;871.00;1024.00
55219;DHT22;41088;44.012;20.902;2022-07-21T13:08:07;870.90;1024.00
55219;DHT22;41088;44.012;20.902;2022-07-21T13:10:33;871.00;1024.00
55219;DHT22;41088;44.012;20.902;2022-07-21T13:15:26;871.00;998.40
55219;DHT22;41088;44.012;20.902;2022-07-21T13:17:52;871.00;972.80
55219;DHT22;41088;44.012;20.902;2022-07-21T13:20:23;871.20;972.80
55219;DHT22;41088;44.012;20.902;2022-07-21T13:22:49;871.10;947.20
55219;DHT22;41088;44.012;20.902;2022-07-21T13:25:15;871.00;947.20
55219;DHT22;41088;44.012;20.902;2022-07-21T13:27:41;871.00;947.20
55219;DHT22;41088;44.012;20.902;2022-07-21T13:30:08;871.00;947.20
55219;DHT22;41088;44.012;20.902;2022-07-21T13:32:35;871.00;947.20
55219;DHT22;41088;44.012;20.902;2022-07-21T13:35:03;871.10;972.80
55219;DHT22;41088;44.012;20.902;2022-07-21T13:37:33;871.10;972.80
55219;DHT22;41088;44.012;20.902;2022-07-21T13:39:59;871.20;947.20
55219;DHT22;41088;44.012;20.902;2022-07-21T13:42:26;871.20;947.20
55219;DHT22;41088;44.012;20.902;2022-07-21T13:44:52;871.10;947.20
55219;DHT22;41088;44.012;20.902;2022-07-21T13:47:22;871.20;947.20
55219;DHT22;41088;44.012;20.902;2022-07-21T13:49:48;871.10;947.20
55219;DHT22;41088;44.012;20.902;2022-07-21T13:52:17;871.10;947.20
55219;DHT22;41088;44.012;20.902;2022-07-21T13:54:42;871.20;947.20
55219;DHT22;41088;44.012;20.902;2022-07-21T13:57:08;871.20;921.60
55219;DHT22;41088;44.012;20.902;2022-07-21T13:59:34;871.20;921.60
55219;DHT22;41088;44.012;20.902;2022-07-21T14:02:00;871.20;921.60
55219;DHT22;41088;44.012;20.902;2022-07-21T14:04:26;871.20;947.20
55219;DHT22;41088;44.012;20.902;2022-07-21T14:06:52;871.20;921.60
55219;DHT22;41088;44.012;20.902;2022-07-21T14:09:19;871.30;921.60
55219;DHT22;41088;44.012;20.902;2022-07-21T14:11:46;871.30;921.60
55219;DHT22;41088;44.012;20.902;2022-07-21T14:14:12;871.30;947.20
55219;DHT22;41088;44.012;20.902;2022-07-21T14:16:43;896.00;921.60
55219;DHT22;41088;44.012;20.902;2022-07-21T14:19:10;896.00;921.60
55219;DHT22;41088;44.012;20.902;2022-07-21T14:21:35;896.00;921.60
55219;DHT22;41088;44.012;20.902;2022-07-21T14:24:02;896.00;921.60
55219;DHT22;41088;44.012;20.902;2022-07-21T14:26:46;896.00;921.60
55219;DHT22;41088;44.012;20.902;2022-07-21T14:29:12;896.00;921.60
55219;DHT22;41088;44.012;20.902;2022-07-21T14:31:38;896.00;921.60
55219;DHT22;41088;44.012;20.902;2022-07-21T14:34:04;871.30;921.60
55219;DHT22;41088;44.012;20.902;2022-07-21T14:36:30;896.00;921.60
55219;DHT22;41088;44.012;20.902;2022-07-21T14:38:57;871.30;947.20
55219;DHT22;41088;44.012;20.902;2022-07-21T14:41:25;871.20;947.20
55219;DHT22;41088;44.012;20.902;2022-07-21T14:43:54;871.20;921.60
55219;DHT22;41088;44.012;20.902;2022-07-21T14:46:20;871.20;947.20
55219;DHT22;41088;44.012;20.902;2022-07-21T14:48:46;871.20;947.20
55219;DHT22;41088;44.012;20.902;2022-07-21T14:51:12;871.30;947.20
55219;DHT22;41088;44.012;20.902;2022-07-21T14:53:38;871.30;947.20
55219;DHT22;41088;44.012;20.902;2022-07-21T14:56:04;896.00;947.20
55219;DHT22;41088;44.012;20.902;2022-07-21T14:58:30;871.20;947.20
55219;DHT22;41088;44.012;20.902;2022-07-21T15:00:56;871.20;947.20
55219;DHT22;41088;44.012;20.902;2022-07-21T15:03:22;871.20;947.20
55219;DHT22;41088;44.012;20.902;2022-07-21T15:05:48;871.10;947.20
55219;DHT22;41088;44.012;20.902;2022-07-21T15:08:14;871.10;947.20
55219;DHT22;41088;44.012;20.902;2022-07-21T15:10:41;871.10;947.20
55219;DHT22;41088;44.012;20.902;2022-07-21T15:13:07;871.10;947.20
55219;DHT22;41088;44.012;20.902;2022-07-21T15:15:33;871.10;947.20
55219;DHT22;41088;44.012;20.902;2022-07-21T15:18:02;871.10;947.20
55219;DHT22;41088;44.012;20.902;2022-07-21T15:20:28;871.00;947.20
55219;DHT22;41088;44.012;20.902;2022-07-21T15:22:54;871.00;947.20
55219;DHT22;41088;44.012;20.902;2022-07-21T15:25:20;871.00;947.20
55219;DHT22;41088;44.012;20.902;2022-07-21T15:27:46;871.00;947.20
55219;DHT22;41088;44.012;20.902;2022-07-21T15:30:14;871.00;947.20
55219;DHT22;41088;44.012;20.902;2022-07-21T15:32:41;871.00;972.80
55219;DHT22;41088;44.012;20.902;2022-07-21T15:35:08;871.00;947.20
55219;DHT22;41088;44.012;20.902;2022-07-21T15:37:34;871.00;972.80
55219;DHT22;41088;44.012;20.902;2022-07-21T15:40:01;871.00;947.20
55219;DHT22;41088;44.012;20.902;2022-07-21T15:42:27;870.90;921.60
55219;DHT22;41088;44.012;20.902;2022-07-21T15:44:54;870.90;947.20
55219;DHT22;41088;44.012;20.902;2022-07-21T15:47:20;871.00;947.20
55219;DHT22;41088;44.012;20.902;2022-07-21T15:49:46;870.90;972.80
55219;DHT22;41088;44.012;20.902;2022-07-21T15:52:15;870.80;972.80
55219;DHT22;41088;44.012;20.902;2022-07-21T15:54:41;870.80;998.40
55219;DHT22;41088;44.012;20.902;2022-07-21T15:57:08;870.80;998.40
55219;DHT22;41088;44.012;20.902;2022-07-21T15:59:35;870.80;998.40
55219;DHT22;41088;44.012;20.902;2022-07-21T16:02:11;870.80;998.40
55219;DHT22;41088;44.012;20.902;2022-07-21T16:04:41;870.80;998.40
55219;DHT22;41088;44.012;20.902;2022-07-21T16:07:09;870.80;1024.00
55219;DHT22;41088;44.012;20.902;2022-07-21T16:09:36;870.70;1024.00
55219;DHT22;41088;44.012;20.902;2022-07-21T16:12:03;870.70;1024.00
55219;DHT22;41088;44.012;20.902;2022-07-21T16:14:29;870.70;1024.00
55219;DHT22;41088;44.012;20.902;2022-07-21T16:16:56;870.70;998.40
55219;DHT22;41088;44.012;20.902;2022-07-21T16:19:23;870.60;1024.00
55219;DHT22;41088;44.012;20.902;2022-07-21T16:21:49;870.60;1024.00
55219;DHT22;41088;44.012;20.902;2022-07-21T16:24:16;870.50;1024.00
55219;DHT22;41088;44.012;20.902;2022-07-21T16:26:43;870.50;1024.00
55219;DHT22;41088;44.012;20.902;2022-07-21T16:29:09;870.40;1024.00
55219;DHT22;41088;44.012;20.902;2022-07-21T16:31:36;870.40;1024.00
55219;DHT22;41088;44.012;20.902;2022-07-21T16:34:04;870.40;1024.00
55219;DHT22;41088;44.012;20.902;2022-07-21T16:36:31;870.40;1049.60
55219;DHT22;41088;44.012;20.902;2022-07-21T16:38:56;870.40;1024.00
55219;DHT22;41088;44.012;20.902;2022-07-21T16:41:23;870.40;1049.60
55219;DHT22;41088;44.012;20.902;2022-07-21T16:43:49;845.70;1049.60
55219;DHT22;41088;44.012;20.902;2022-07-21T16:46:15;845.70;1049.60
55219;DHT22;41088;44.012;20.902;2022-07-21T16:48:41;845.60;1049.60
55219;DHT22;41088;44.012;20.902;2022-07-21T16:51:08;845.60;1075.20
55219;DHT22;41088;44.012;20.902;2022-07-21T16:53:34;845.60;1075.20
55219;DHT22;41088;44.012;20.902;2022-07-21T16:56:01;845.50;1075.20
55219;DHT22;41088;44.012;20.902;2022-07-21T16:58:27;845.50;1075.20
55219;DHT22;41088;44.012;20.902;2022-07-21T17:00:52;845.40;1075.20
55219;DHT22;41088;44.012;20.902;2022-07-21T17:03:18;845.30;1100.80
55219;DHT22;41088;44.012;20.902;2022-07-21T17:05:44;845.30;1100.80
55219;DHT22;41088;44.012;20.902;2022-07-21T17:08:10;845.30;1100.80
55219;DHT22;41088;44.012;20.902;2022-07-21T17:10:36;845.20;1126.40
55219;DHT22;41088;44.012;20.902;2022-07-21T17:13:02;845.10;1100.80
55219;DHT22;41088;44.012;20.902;2022-07-21T17:15:29;845.10;1100.80
55219;DHT22;41088;44.012;20.902;2022-07-21T17:17:55;845.00;1152.00
55219;DHT22;41088;44.012;20.902;2022-07-21T17:20:21;845.00;1126.40
55219;DHT22;41088;44.012;20.902;2022-07-21T17:22:47;844.90;1126.40
55219;DHT22;41088;44.012;20.902;2022-07-21T17:25:13;844.90;1126.40
55219;DHT22;41088;44.012;20.902;2022-07-21T17:27:39;844.80;1126.40
55219;DHT22;41088;44.012;20.902;2022-07-21T17:30:06;844.80;1152.00
55219;DHT22;41088;44.012;20.902;2022-07-21T17:32:34;820.10;1126.40
55219;DHT22;41088;44.012;20.902;2022-07-21T17:35:01;820.10;1126.40
55219;DHT22;41088;44.012;20.902;2022-07-21T17:37:27;820.00;1126.40
55219;DHT22;41088;44.012;20.902;2022-07-21T17:39:53;819.90;1126.40
55219;DHT22;41088;44.012;20.902;2022-07-21T17:47:12;819.70;1152.00
55219;DHT22;41088;44.012;20.902;2022-07-21T18:09:30;794.50;1177.60
55219;DHT22;41088;44.012;20.902;2022-07-21T18:14:23;794.30;1177.60
55219;DHT22;41088;44.012;20.902;2022-07-21T18:16:49;794.30;1177.60
55219;DHT22;41088;44.012;20.902;2022-07-21T18:19:15;794.20;1203.20
55219;DHT22;41088;44.012;20.902;2022-07-21T18:24:08;794.00;1177.60
55219;DHT22;41088;44.012;20.902;2022-07-21T18:29:03;793.90;1203.20
55219;DHT22;41088;44.012;20.902;2022-07-21T18:36:22;793.60;1203.20
55219;DHT22;41088;44.012;20.902;2022-07-21T19:03:16;768.00;1382.40
55219;DHT22;41088;44.012;20.902;2022-07-21T19:05:42;743.00;1408.00
55219;DHT22;41088;44.012;20.902;2022-07-21T19:08:08;742.90;1408.00
55219;DHT22;41088;44.012;20.902;2022-07-21T19:10:34;742.80;1408.00
55219;DHT22;41088;44.012;20.902;2022-07-21T19:13:00;742.80;1433.60
55219;DHT22;41088;44.012;20.902;2022-07-21T19:27:40;742.60;1459.20
55219;DHT22;41088;44.012;20.902;2022-07-21T19:30:08;717.70;1433.60
55219;DHT22;41088;44.012;20.902;2022-07-21T23:12:31;640.10;1638.40
55219;DHT22;41088;44.012;20.902;2022-07-21T23:14:57;615.30;1638.40
55219;DHT22;41088;44.012;20.902;2022-07-21T23:17:23;615.20;1664.00
55219;DHT22;41088;44.012;20.902;2022-07-21T23:19:49;615.20;1715.20
55219;DHT22;41088;44.012;20.902;2022-07-21T23:22:15;615.10;1664.00
55219;DHT22;41088;44.012;20.902;2022-07-21T23:24:41;615.00;1689.60
55219;DHT22;41088;44.012;20.902;2022-07-21T23:27:07;615.00;1689.60
55219;DHT22;41088;44.012;20.902;2022-07-21T23:29:33;615.00;1689.60
55219;DHT22;41088;44.012;20.902;2022-07-21T23:31:59;615.00;1689.60
55219;DHT22;41088;44.012;20.902;2022-07-21T23:34:24;614.90;1715.20
55219;DHT22;41088;44.012;20.902;2022-07-21T23:36:50;614.80;1715.20
55219;DHT22;41088;44.012;20.902;2022-07-21T23:44:09;615.00;1689.60
55219;DHT22;41088;44.012;20.902;2022-07-21T23:46:35;614.80;1715.20
55219;DHT22;41088;44.012;20.902;2022-07-21T23:49:01;614.70;1715.20
55219;DHT22;41088;44.012;20.902;2022-07-21T23:51:27;614.70;1715.20
55219;DHT22;41088;44.012;20.902;2022-07-21T23:53:53;614.60;1740.80
55219;DHT22;41088;44.012;20.902;2022-07-21T23:56:19;614.60;1766.40
55219;DHT22;41088;44.012;20.902;2022-07-21T23:58:45;614.50;1766.40
